Dallas, TX

6:04 AM CST en Diciembre 21, 2014 (GMT -0600)
Bryan Parkway | Change Station
CLOSE
Current Station
Estación meteorológica personal
Location: Dallas, TX
Altura: 525 ft
Estaciones meteorológicas cercanas

Alt 525 ft 32.81 °N, 96.76 °W | Updated 2 seconds ago

Nublado
Nublado
47.1 ° F
Sensación térmica 44 ° F
N
6.7
Viento Variable Viento desde SE
Gusts 10.6 mph

Hoy
Alta -- | Baja -- ° F
--% Posibilidad de precipitaciones
Ayer
Alta -- | Baja -- ° F
Precip. -- pul
7:25 AM 5:25 PM
Creciente menguante, 0% visible
Presión 30.11 pul
Visibilidad 8.0 Millas
Nubes Baja 1000 ft
Nublado 2900 ft
Vientos helados 44 ° F
Punto de rocío 44 ° F
Humedad 89%
Precipitaciones 0.00 pul
Espesor de la nieve No disponible.
UV 0 de una escala de 12
Polen 9.40 de una escala de 12
Calidad del aire No disponible.
Flu Activity No disponible.
METAR KDAL 211153Z 15010KT 8SM FEW010 OVC029 09/06 A3011 RMK AO2 SLP195 T00890061 10094 20089 56011

More Conditions Fewer Conditions

Presión 30.11 pul
Visibilidad 8.0 Millas
Nubes Baja 1000 ft
Nublado 2900 ft
Vientos helados 44 ° F
Punto de rocío 44 ° F
Humedad 89%
Precipitaciones 0.00 pul
Espesor de la nieve No disponible.
UV 0 de una escala de 12
Polen 9.40 de una escala de 12
Calidad del aire No disponible.
Flu Activity No disponible.
METAR KDAL 211153Z 15010KT 8SM FEW010 OVC029 09/06 A3011 RMK AO2 SLP195 T00890061 10094 20089 56011

More Conditions Fewer Conditions

10-Day Weather Forecast

Almanac

Astronomía

Dec. 21, 2014 Salida Puesta
Hora real
Crepúsculo civil
Crepúsculo náutico
Crepúsculo astronómico
Luna
Horas de luz
Horas de luz
Tomorrow will be .
, % of the Moon is Illuminated

Extremos de hoy

Máximos del estado Bajos del estado

Community

WunderPhotos

Upload Photos

1,779,371 ¡fotos cargadas!

WunderBlogs® & News

Nearby

Calidad del aire

  Calidad del aire Índice AQ Contaminante
Not available.

Grosos de nieve

Estación Profundido Altura

Actividad de terremotos

Ciudad Distance Mag. Tiempo y dato
Magnitud mínima muestra es 2,5.

Temperaturas de aguas costeras

Lugar Temperatura

Estaciones meteorológicas cercanas